createdAt,value
2019-02-08T00:00:32.969Z,0.00
2019-02-08T00:01:32.886Z,0.00
2019-02-08T00:02:32.796Z,0.00
2019-02-08T00:03:32.724Z,0.00
2019-02-08T00:04:32.632Z,0.00
2019-02-08T00:05:32.565Z,0.00
2019-02-08T00:06:32.472Z,0.00
2019-02-08T00:07:32.387Z,0.00
2019-02-08T00:08:32.298Z,0.00
2019-02-08T00:09:32.214Z,0.00
2019-02-08T00:10:32.128Z,0.00
2019-02-08T00:11:32.050Z,0.00
2019-02-08T00:12:31.959Z,0.00
2019-02-08T00:13:31.886Z,0.00
2019-02-08T00:14:31.797Z,0.00
2019-02-08T00:15:31.716Z,0.00
2019-02-08T00:16:31.628Z,0.00
2019-02-08T00:17:31.543Z,0.00
2019-02-08T00:18:31.459Z,0.00
2019-02-08T00:19:31.371Z,0.00
2019-02-08T00:20:31.342Z,0.00
2019-02-08T00:21:31.215Z,0.00
2019-02-08T00:22:31.128Z,0.00
2019-02-08T00:23:31.041Z,0.00
2019-02-08T00:24:30.968Z,0.00
2019-02-08T00:25:30.875Z,0.00
2019-02-08T00:26:30.787Z,0.00
2019-02-08T00:27:30.711Z,0.00
2019-02-08T00:28:30.623Z,0.00
2019-02-08T00:29:30.531Z,0.00
2019-02-08T00:30:30.472Z,0.00
2019-02-08T00:31:30.367Z,0.00
2019-02-08T00:32:30.280Z,0.00
2019-02-08T00:33:30.202Z,0.00
2019-02-08T00:34:30.124Z,0.00
2019-02-08T00:35:30.032Z,0.00
2019-02-08T00:36:29.951Z,0.00
2019-02-08T00:37:29.877Z,0.00
2019-02-08T00:38:29.783Z,0.00
2019-02-08T00:39:29.705Z,0.00
2019-02-08T00:40:29.620Z,0.00
2019-02-08T00:41:29.527Z,0.00
2019-02-08T00:42:29.444Z,0.00
2019-02-08T00:43:29.365Z,0.00
2019-02-08T00:44:29.277Z,0.00
2019-02-08T00:45:29.193Z,0.00
2019-02-08T00:46:29.111Z,0.00
2019-02-08T00:47:29.028Z,0.00
2019-02-08T00:48:28.944Z,0.00
2019-02-08T00:49:28.862Z,0.00
2019-02-08T00:50:28.772Z,0.00
2019-02-08T00:51:28.692Z,0.00
2019-02-08T00:52:28.629Z,0.00
2019-02-08T00:53:33.390Z,0.00
2019-02-08T00:54:28.438Z,0.00
2019-02-08T00:55:28.358Z,0.00
2019-02-08T00:56:28.270Z,0.00
2019-02-08T00:57:28.188Z,0.00
2019-02-08T00:58:28.105Z,0.00
2019-02-08T00:59:28.020Z,0.00
2019-02-08T01:00:27.938Z,0.00
2019-02-08T01:01:27.854Z,0.00
2019-02-08T01:02:27.771Z,0.00
2019-02-08T01:03:27.686Z,0.00
2019-02-08T01:04:27.601Z,0.00
2019-02-08T01:05:27.517Z,0.00
2019-02-08T01:06:27.436Z,0.00
2019-02-08T01:07:27.352Z,0.00
2019-02-08T01:08:27.268Z,0.00
2019-02-08T01:09:27.182Z,0.00
2019-02-08T01:10:27.103Z,0.00
2019-02-08T01:11:27.022Z,0.00
2019-02-08T01:12:26.933Z,0.00
2019-02-08T01:13:28.457Z,0.00
2019-02-08T01:14:26.764Z,0.00
2019-02-08T01:15:26.688Z,0.00
2019-02-08T01:16:26.597Z,0.00
2019-02-08T01:17:26.515Z,0.00
2019-02-08T01:18:26.443Z,0.00
2019-02-08T01:19:26.349Z,0.00
2019-02-08T01:20:26.261Z,0.00
2019-02-08T01:21:26.176Z,0.00
2019-02-08T01:22:26.101Z,0.00
2019-02-08T01:23:26.012Z,0.00
2019-02-08T01:24:25.930Z,0.00
2019-02-08T01:25:25.843Z,0.00
2019-02-08T01:26:25.763Z,0.00
2019-02-08T01:27:25.680Z,0.00
2019-02-08T01:28:25.595Z,0.00
2019-02-08T01:29:25.560Z,0.00
2019-02-08T01:30:25.427Z,0.00
2019-02-08T01:31:25.344Z,0.00
2019-02-08T01:32:25.258Z,0.00
2019-02-08T01:33:25.177Z,0.00
2019-02-08T01:34:25.086Z,0.00
2019-02-08T01:35:25.007Z,0.00
2019-02-08T01:36:24.925Z,0.00
2019-02-08T01:37:24.839Z,0.00
2019-02-08T01:38:24.757Z,0.00
2019-02-08T01:39:24.672Z,0.00
2019-02-08T01:40:24.587Z,0.00
2019-02-08T01:41:24.504Z,0.00
2019-02-08T01:42:24.418Z,0.00
2019-02-08T01:43:24.342Z,0.00
2019-02-08T01:44:24.251Z,0.00
2019-02-08T01:45:24.170Z,0.00
2019-02-08T01:46:24.086Z,0.00
2019-02-08T01:47:24.002Z,0.00
2019-02-08T01:48:23.919Z,0.00
2019-02-08T01:49:23.831Z,0.00
2019-02-08T01:50:23.750Z,0.00
2019-02-08T01:51:23.667Z,0.00
2019-02-08T01:52:23.584Z,0.00
2019-02-08T01:53:23.501Z,0.00
2019-02-08T01:54:23.417Z,0.00
2019-02-08T01:55:23.335Z,0.00
2019-02-08T01:56:23.246Z,0.00
2019-02-08T01:57:23.164Z,0.00
2019-02-08T01:58:23.082Z,0.00
2019-02-08T01:59:23.001Z,0.00
2019-02-08T02:00:22.914Z,0.00
2019-02-08T02:01:22.832Z,0.00
2019-02-08T02:02:22.744Z,0.00
2019-02-08T02:03:22.666Z,0.00
2019-02-08T02:04:22.581Z,0.00
2019-02-08T02:05:22.491Z,0.00
2019-02-08T02:06:22.410Z,0.00
2019-02-08T02:07:22.326Z,0.00
2019-02-08T02:08:22.245Z,0.00
2019-02-08T02:09:22.164Z,0.00
2019-02-08T02:10:22.075Z,0.00
2019-02-08T02:11:21.996Z,0.00
2019-02-08T02:12:21.910Z,0.00
2019-02-08T02:13:21.825Z,0.00
2019-02-08T02:14:21.744Z,0.00
2019-02-08T02:15:21.661Z,0.00
2019-02-08T02:16:21.577Z,0.00
2019-02-08T02:17:21.496Z,0.00
2019-02-08T02:18:21.410Z,0.00
2019-02-08T02:19:21.324Z,0.00
2019-02-08T02:20:21.242Z,0.00
2019-02-08T02:21:21.162Z,0.00
2019-02-08T02:22:21.074Z,0.00
2019-02-08T02:23:20.991Z,0.00
2019-02-08T02:24:20.910Z,0.00
2019-02-08T02:25:20.824Z,0.00
2019-02-08T02:26:20.738Z,0.00
2019-02-08T02:27:20.659Z,0.00
2019-02-08T02:28:20.570Z,0.00
2019-02-08T02:29:20.491Z,0.00
2019-02-08T02:30:20.406Z,0.00
2019-02-08T02:31:20.336Z,0.00
2019-02-08T02:32:20.241Z,0.00
2019-02-08T02:33:20.161Z,0.00
2019-02-08T02:34:20.071Z,0.00
2019-02-08T02:35:19.983Z,0.00
2019-02-08T02:36:19.911Z,0.00
2019-02-08T02:37:19.820Z,0.00
2019-02-08T02:38:19.738Z,0.00
2019-02-08T02:39:19.654Z,0.00
2019-02-08T02:40:19.570Z,0.00
2019-02-08T02:41:19.482Z,0.00
2019-02-08T02:42:19.402Z,0.00
2019-02-08T02:43:19.321Z,0.00
2019-02-08T02:44:19.234Z,0.00
2019-02-08T02:45:19.152Z,0.00
2019-02-08T02:46:19.067Z,0.00
2019-02-08T02:47:18.981Z,0.00
2019-02-08T02:48:18.900Z,0.00
2019-02-08T02:49:18.815Z,0.00
2019-02-08T02:50:18.732Z,0.00
2019-02-08T02:51:18.648Z,0.00
2019-02-08T02:52:18.565Z,0.00
2019-02-08T02:53:18.482Z,0.00
2019-02-08T02:54:18.409Z,0.00
2019-02-08T02:55:18.323Z,0.00
2019-02-08T02:56:18.231Z,0.00
2019-02-08T02:57:18.147Z,0.00
2019-02-08T02:58:18.060Z,0.00
2019-02-08T02:59:17.977Z,0.00
2019-02-08T03:00:17.897Z,0.00
2019-02-08T03:01:17.811Z,0.00
2019-02-08T03:02:17.733Z,0.00
2019-02-08T03:03:17.654Z,0.00
2019-02-08T03:04:17.560Z,0.00
2019-02-08T03:05:17.473Z,0.00
2019-02-08T03:06:17.411Z,0.00
2019-02-08T03:07:17.309Z,0.00
2019-02-08T03:08:17.227Z,0.00
2019-02-08T03:09:17.138Z,0.00
2019-02-08T03:10:17.063Z,0.00
2019-02-08T03:11:16.975Z,0.00
2019-02-08T03:12:16.895Z,0.00
2019-02-08T03:13:16.808Z,0.00
2019-02-08T03:14:16.721Z,0.00
2019-02-08T03:15:16.638Z,0.00
2019-02-08T03:16:16.557Z,0.00
2019-02-08T03:17:16.471Z,0.00
2019-02-08T03:18:16.389Z,0.00
2019-02-08T03:19:16.302Z,0.00
2019-02-08T03:20:16.220Z,0.00
2019-02-08T03:21:16.138Z,0.00
2019-02-08T03:22:16.051Z,0.00
2019-02-08T03:23:15.970Z,0.00
2019-02-08T03:24:15.893Z,0.00
2019-02-08T03:25:15.804Z,0.00
2019-02-08T03:26:15.719Z,0.00
2019-02-08T03:27:15.633Z,0.00
2019-02-08T03:28:15.557Z,0.00
2019-02-08T03:29:15.467Z,0.00
2019-02-08T03:30:15.387Z,0.00
2019-02-08T03:31:15.301Z,0.00
2019-02-08T03:32:15.226Z,0.00
2019-02-08T03:33:15.136Z,0.00
2019-02-08T03:34:15.052Z,0.00
2019-02-08T03:35:14.962Z,0.00
2019-02-08T03:36:14.882Z,0.00
2019-02-08T03:37:14.793Z,0.00
2019-02-08T03:38:14.718Z,0.00
2019-02-08T03:39:14.629Z,0.00
2019-02-08T03:40:14.546Z,0.00
2019-02-08T03:41:14.463Z,0.00
2019-02-08T03:42:14.381Z,0.00
2019-02-08T03:43:14.294Z,0.00
2019-02-08T03:44:14.213Z,0.00
2019-02-08T03:45:14.125Z,0.00
2019-02-08T03:46:14.045Z,0.00
2019-02-08T03:47:13.956Z,0.00
2019-02-08T03:48:13.890Z,0.00
2019-02-08T03:49:13.793Z,0.00
2019-02-08T03:50:13.710Z,0.00
2019-02-08T03:51:13.626Z,0.00
2019-02-08T03:52:13.541Z,0.00
2019-02-08T03:53:13.456Z,0.00
2019-02-08T03:54:20.682Z,0.00
2019-02-08T03:55:13.293Z,0.00
2019-02-08T03:56:13.207Z,0.00
2019-02-08T03:57:13.131Z,0.00
2019-02-08T03:58:13.040Z,0.00
2019-02-08T03:59:12.955Z,0.00
2019-02-08T04:00:12.871Z,0.00
2019-02-08T04:01:12.784Z,0.00
2019-02-08T04:02:12.708Z,0.00
2019-02-08T04:03:12.615Z,0.00
2019-02-08T04:04:12.531Z,0.00
2019-02-08T04:05:12.450Z,0.00
2019-02-08T04:06:12.367Z,0.00
2019-02-08T04:07:12.282Z,0.00
2019-02-08T04:08:12.198Z,0.00
2019-02-08T04:09:12.112Z,0.00
2019-02-08T04:10:12.037Z,0.00
2019-02-08T04:11:11.945Z,0.00
2019-02-08T04:12:11.860Z,0.00
2019-02-08T04:13:11.782Z,0.00
2019-02-08T04:14:11.691Z,0.00
2019-02-08T04:15:11.606Z,0.00
2019-02-08T04:16:11.528Z,0.00
2019-02-08T04:17:11.445Z,0.00
2019-02-08T04:18:11.357Z,0.00
2019-02-08T04:19:11.276Z,0.00
2019-02-08T04:20:11.191Z,0.00
2019-02-08T04:21:11.105Z,0.00
2019-02-08T04:22:11.022Z,0.00
2019-02-08T04:23:10.939Z,0.00
2019-02-08T04:24:10.856Z,0.00
2019-02-08T04:25:10.770Z,0.00
2019-02-08T04:26:10.686Z,0.00
2019-02-08T04:27:10.601Z,0.00
2019-02-08T04:28:10.522Z,0.00
2019-02-08T04:29:10.440Z,0.00
2019-02-08T04:30:10.350Z,0.00
2019-02-08T04:31:10.268Z,0.00
2019-02-08T04:32:10.181Z,0.00
2019-02-08T04:33:10.105Z,0.00
2019-02-08T04:34:10.042Z,0.00
2019-02-08T04:35:09.935Z,0.00
2019-02-08T04:36:09.852Z,0.00
2019-02-08T04:37:09.763Z,0.00
2019-02-08T04:38:09.677Z,0.00
2019-02-08T04:39:09.599Z,0.00
2019-02-08T04:40:09.514Z,0.00
2019-02-08T04:41:09.425Z,0.00
2019-02-08T04:42:09.354Z,0.00
2019-02-08T04:43:09.261Z,0.00
2019-02-08T04:44:09.173Z,0.00
2019-02-08T04:45:09.092Z,0.00
2019-02-08T04:46:09.013Z,0.00
2019-02-08T04:47:08.923Z,0.00
2019-02-08T04:48:08.844Z,0.00
2019-02-08T04:49:08.755Z,0.00
2019-02-08T04:50:08.674Z,0.00
2019-02-08T04:51:08.594Z,0.00
2019-02-08T04:52:08.503Z,0.00
2019-02-08T04:53:08.421Z,0.00
2019-02-08T04:54:08.337Z,0.00
2019-02-08T04:55:08.249Z,0.00
2019-02-08T04:56:08.169Z,0.00
2019-02-08T04:57:08.084Z,0.00
2019-02-08T04:58:07.999Z,0.00
2019-02-08T04:59:07.911Z,0.00
2019-02-08T05:00:07.833Z,0.00
2019-02-08T05:01:07.750Z,0.00
2019-02-08T05:02:07.664Z,0.00
2019-02-08T05:03:07.586Z,0.00
2019-02-08T05:04:07.495Z,0.00
2019-02-08T05:05:07.412Z,0.00
2019-02-08T05:06:07.333Z,0.00
2019-02-08T05:07:07.241Z,0.00
2019-02-08T05:08:07.164Z,0.00
2019-02-08T05:09:07.075Z,0.00
2019-02-08T05:10:07.006Z,0.00
2019-02-08T05:11:06.921Z,0.00
2019-02-08T05:12:06.816Z,0.00
2019-02-08T05:13:06.740Z,0.00
2019-02-08T05:14:06.653Z,0.00
2019-02-08T05:15:06.574Z,0.00
2019-02-08T05:16:06.487Z,0.00
2019-02-08T05:17:06.422Z,0.00
2019-02-08T05:18:06.314Z,0.00
2019-02-08T05:19:06.231Z,0.00
2019-02-08T05:20:06.150Z,0.00
2019-02-08T05:21:06.066Z,0.00
2019-02-08T05:22:05.981Z,0.00
2019-02-08T05:23:05.897Z,0.00
2019-02-08T05:24:05.815Z,0.00
2019-02-08T05:25:05.729Z,0.00
2019-02-08T05:26:05.645Z,0.00
2019-02-08T05:27:05.563Z,0.00
2019-02-08T05:28:05.477Z,0.00
2019-02-08T05:29:05.393Z,0.00
2019-02-08T05:30:05.311Z,0.00
2019-02-08T05:31:05.230Z,0.00
2019-02-08T05:32:05.147Z,0.00
2019-02-08T05:33:05.062Z,0.00
2019-02-08T05:34:04.971Z,0.00
2019-02-08T05:35:05.097Z,0.00
2019-02-08T05:36:04.799Z,0.00
2019-02-08T05:37:04.717Z,0.00
2019-02-08T05:38:04.634Z,0.00
2019-02-08T05:39:04.548Z,0.00
2019-02-08T05:40:04.463Z,0.00
2019-02-08T05:41:04.381Z,0.00
2019-02-08T05:42:04.298Z,0.00
2019-02-08T05:43:04.214Z,0.00
2019-02-08T05:44:04.126Z,0.00
2019-02-08T05:45:04.041Z,0.00
2019-02-08T05:46:03.972Z,0.00
2019-02-08T05:47:03.884Z,0.00
2019-02-08T05:48:03.790Z,0.00
2019-02-08T05:49:03.706Z,0.00
2019-02-08T05:50:03.625Z,0.00
2019-02-08T05:51:03.534Z,0.00
2019-02-08T05:52:03.460Z,0.00
2019-02-08T05:53:03.372Z,0.00
2019-02-08T05:54:03.285Z,0.00
2019-02-08T05:55:03.204Z,0.00
2019-02-08T05:56:03.121Z,0.00
2019-02-08T05:57:03.034Z,0.00
2019-02-08T05:58:02.967Z,0.00
2019-02-08T05:59:02.864Z,0.00
2019-02-08T06:00:02.784Z,0.00
2019-02-08T06:01:02.695Z,0.00
2019-02-08T06:02:02.611Z,0.00
2019-02-08T06:03:02.524Z,0.00
2019-02-08T06:04:02.444Z,0.00
2019-02-08T06:05:02.363Z,0.00
2019-02-08T06:06:02.274Z,0.00
2019-02-08T06:07:02.518Z,0.00
2019-02-08T06:08:02.154Z,0.00
2019-02-08T06:09:02.081Z,0.00
2019-02-08T06:10:01.968Z,0.00
2019-02-08T06:11:01.866Z,0.00
2019-02-08T06:12:01.773Z,0.00
2019-02-08T06:13:01.739Z,0.00
2019-02-08T06:14:01.687Z,0.00
2019-02-08T06:15:01.519Z,0.00
2019-02-08T06:16:01.441Z,0.00
2019-02-08T06:17:01.389Z,0.00
2019-02-08T06:18:01.264Z,0.00
2019-02-08T06:19:01.183Z,0.00
2019-02-08T06:20:01.107Z,0.00
2019-02-08T06:21:01.061Z,4.00
2019-02-08T06:22:00.935Z,0.00
2019-02-08T06:23:00.850Z,0.00
2019-02-08T06:24:00.782Z,0.00
2019-02-08T06:25:03.866Z,4.00
2019-02-08T06:26:00.652Z,0.00
2019-02-08T06:27:00.559Z,4.00
2019-02-08T06:28:00.434Z,0.00
2019-02-08T06:29:00.363Z,4.00
2019-02-08T06:30:00.267Z,4.00
2019-02-08T06:31:00.230Z,8.00
2019-02-08T06:32:00.160Z,4.00
2019-02-08T06:33:00.042Z,8.00
2019-02-08T06:33:59.924Z,8.00
2019-02-08T06:34:59.879Z,8.00
2019-02-08T06:35:59.754Z,8.00
2019-02-08T06:36:59.669Z,8.00
2019-02-08T06:37:59.624Z,8.00
2019-02-08T06:38:59.499Z,12.00
2019-02-08T06:39:59.415Z,12.00
2019-02-08T06:40:59.329Z,12.00
2019-02-08T06:41:59.254Z,12.00
2019-02-08T06:42:59.160Z,16.00
2019-02-08T06:43:59.135Z,16.00
2019-02-08T06:44:59.028Z,12.00
2019-02-08T06:45:58.918Z,12.00
2019-02-08T06:46:58.826Z,16.00
2019-02-08T06:47:58.737Z,20.00
2019-02-08T06:48:58.658Z,20.00
2019-02-08T06:49:58.585Z,16.00
2019-02-08T06:50:58.529Z,20.00
2019-02-08T06:51:58.442Z,24.00
2019-02-08T06:52:58.378Z,24.00
2019-02-08T06:53:58.273Z,24.00
2019-02-08T06:54:58.155Z,28.00
2019-02-08T06:55:58.063Z,28.00
2019-02-08T06:56:57.981Z,28.00
2019-02-08T06:57:57.901Z,32.00
2019-02-08T06:58:57.852Z,32.00
2019-02-08T06:59:57.791Z,36.00
2019-02-08T07:00:57.659Z,36.00
2019-02-08T07:01:57.603Z,40.00
2019-02-08T07:02:57.473Z,40.00
2019-02-08T07:03:57.434Z,40.00
2019-02-08T07:04:57.370Z,44.00
2019-02-08T07:05:57.226Z,48.00
2019-02-08T07:06:57.169Z,52.00
2019-02-08T07:07:57.129Z,52.00
2019-02-08T07:08:56.983Z,52.00
2019-02-08T07:09:56.935Z,56.00
2019-02-08T07:10:56.854Z,60.00
2019-02-08T07:11:56.719Z,64.00
2019-02-08T07:12:56.643Z,68.00
2019-02-08T07:13:56.587Z,72.00
2019-02-08T07:14:56.476Z,80.00
2019-02-08T07:15:56.433Z,84.00
2019-02-08T07:16:56.300Z,92.00
2019-02-08T07:17:56.271Z,96.00
2019-02-08T07:18:56.133Z,104.00
2019-02-08T07:19:56.062Z,112.00
2019-02-08T07:20:55.965Z,112.00
2019-02-08T07:21:55.881Z,116.00
2019-02-08T07:22:55.792Z,116.00
2019-02-08T07:23:55.718Z,124.00
2019-02-08T07:24:55.625Z,132.00
2019-02-08T07:25:55.562Z,140.00
2019-02-08T07:26:55.463Z,144.00
2019-02-08T07:27:55.379Z,144.00
2019-02-08T07:28:55.322Z,144.00
2019-02-08T07:29:55.268Z,144.00
2019-02-08T07:30:55.173Z,148.00
2019-02-08T07:31:55.054Z,148.00
2019-02-08T07:32:54.974Z,152.00
2019-02-08T07:33:54.926Z,156.00
2019-02-08T07:34:54.841Z,164.00
2019-02-08T07:35:54.721Z,172.00
2019-02-08T07:36:54.618Z,184.00
2019-02-08T07:37:54.594Z,188.00
2019-02-08T07:38:54.448Z,196.00
2019-02-08T07:39:54.368Z,208.00
2019-02-08T07:40:54.305Z,216.00
2019-02-08T07:41:54.200Z,224.00
2019-02-08T07:42:54.126Z,232.00
2019-02-08T07:43:54.083Z,236.00
2019-02-08T07:44:53.965Z,232.00
2019-02-08T07:45:53.865Z,224.00
2019-02-08T07:46:53.822Z,220.00
2019-02-08T07:47:53.705Z,220.00
2019-02-08T07:48:53.673Z,228.00
2019-02-08T07:49:53.550Z,244.00
2019-02-08T07:50:53.441Z,256.00
2019-02-08T07:51:53.362Z,268.00
2019-02-08T07:52:53.330Z,280.00
2019-02-08T07:53:53.212Z,280.00
2019-02-08T07:54:53.126Z,288.00
2019-02-08T07:55:53.026Z,288.00
2019-02-08T07:56:52.954Z,292.00
2019-02-08T07:57:52.866Z,288.00
2019-02-08T07:58:52.837Z,296.00
2019-02-08T07:59:52.738Z,292.00
2019-02-08T08:00:52.609Z,296.00
2019-02-08T08:01:52.530Z,324.00
2019-02-08T08:02:52.447Z,324.00
2019-02-08T08:03:52.473Z,320.00
2019-02-08T08:04:52.313Z,328.00
2019-02-08T08:05:52.192Z,340.00
2019-02-08T08:06:52.101Z,340.00
2019-02-08T08:07:52.096Z,348.00
2019-02-08T08:08:51.936Z,348.00
2019-02-08T08:09:51.880Z,372.00
2019-02-08T08:10:51.778Z,384.00
2019-02-08T08:11:51.721Z,404.00
2019-02-08T08:12:51.600Z,476.00
2019-02-08T08:13:51.519Z,1348.00
2019-02-08T08:14:51.470Z,624.00
2019-02-08T08:15:51.351Z,612.00
2019-02-08T08:16:51.269Z,1496.00
2019-02-08T08:17:51.235Z,1424.00
2019-02-08T08:18:51.097Z,1584.00
2019-02-08T08:19:51.064Z,1616.00
2019-02-08T08:20:50.933Z,1688.00
2019-02-08T08:21:50.858Z,1716.00
2019-02-08T08:22:50.827Z,1720.00
2019-02-08T08:23:50.682Z,1768.00
2019-02-08T08:24:50.611Z,1792.00
2019-02-08T08:25:50.518Z,1804.00
2019-02-08T08:26:50.471Z,1828.00
2019-02-08T08:27:50.411Z,1800.00
2019-02-08T08:28:50.265Z,1832.00
2019-02-08T08:29:50.183Z,1828.00
2019-02-08T08:30:50.107Z,1832.00
2019-02-08T08:31:50.053Z,1780.00
2019-02-08T08:32:49.942Z,1736.00
2019-02-08T08:33:49.859Z,1700.00
2019-02-08T08:34:49.804Z,1692.00
2019-02-08T08:35:49.691Z,1704.00
2019-02-08T08:36:49.614Z,1736.00
2019-02-08T08:37:49.526Z,1704.00
2019-02-08T08:38:49.453Z,1744.00
2019-02-08T08:39:49.358Z,1740.00
2019-02-08T08:40:49.345Z,1748.00
2019-02-08T08:41:49.248Z,1800.00
2019-02-08T08:42:49.109Z,1804.00
2019-02-08T08:43:49.074Z,1716.00
2019-02-08T08:44:48.945Z,1800.00
2019-02-08T08:45:48.860Z,1796.00
2019-02-08T08:46:48.793Z,1820.00
2019-02-08T08:47:48.736Z,1848.00
2019-02-08T08:48:48.654Z,1848.00
2019-02-08T08:49:48.540Z,1708.00
2019-02-08T08:50:48.504Z,1676.00
2019-02-08T08:51:48.373Z,1840.00
2019-02-08T08:52:48.329Z,1892.00
2019-02-08T08:53:48.215Z,1940.00
2019-02-08T08:54:48.150Z,1948.00
2019-02-08T08:55:48.040Z,1980.00
2019-02-08T08:56:48.006Z,1948.00
2019-02-08T08:57:47.889Z,1948.00
2019-02-08T08:58:47.835Z,2020.00
2019-02-08T08:59:47.768Z,2044.00
2019-02-08T09:00:47.635Z,2092.00
2019-02-08T09:01:47.563Z,2124.00
2019-02-08T09:02:47.528Z,2140.00
2019-02-08T09:03:47.403Z,2136.00
2019-02-08T09:04:47.320Z,2164.00
2019-02-08T09:05:47.271Z,2192.00
2019-02-08T09:06:47.152Z,2092.00
2019-02-08T09:07:47.090Z,2068.00
2019-02-08T09:08:46.990Z,2104.00
2019-02-08T09:09:46.910Z,2116.00
2019-02-08T09:10:46.824Z,2184.00
2019-02-08T09:11:46.772Z,2124.00
2019-02-08T09:12:46.716Z,2240.00
2019-02-08T09:13:46.637Z,2340.00
2019-02-08T09:14:46.503Z,2352.00
2019-02-08T09:15:46.426Z,2324.00
2019-02-08T09:16:46.385Z,2352.00
2019-02-08T09:17:46.260Z,2380.00
2019-02-08T09:18:46.180Z,2356.00
2019-02-08T09:19:46.149Z,2364.00
2019-02-08T09:20:46.020Z,2364.00
2019-02-08T09:21:45.936Z,2408.00
2019-02-08T09:22:45.862Z,2404.00
2019-02-08T09:23:45.775Z,2376.00
2019-02-08T09:24:45.749Z,2428.00
2019-02-08T09:25:49.925Z,2440.00
2019-02-08T09:26:45.538Z,2356.00
2019-02-08T09:27:45.452Z,2404.00
2019-02-08T09:28:45.377Z,2452.00
2019-02-08T09:29:45.327Z,2448.00
2019-02-08T09:30:45.288Z,2352.00
2019-02-08T09:31:45.184Z,2484.00
2019-02-08T09:32:45.089Z,2480.00
2019-02-08T09:33:45.013Z,2508.00
2019-02-08T09:34:44.888Z,2540.00
2019-02-08T09:35:44.833Z,2500.00
2019-02-08T09:36:47.638Z,2456.00
2019-02-08T09:37:44.650Z,2444.00
2019-02-08T09:38:44.613Z,2556.00
2019-02-08T09:39:44.542Z,2556.00
2019-02-08T09:40:44.418Z,2512.00
2019-02-08T09:41:44.391Z,2504.00
2019-02-08T09:42:44.265Z,2472.00
2019-02-08T09:43:44.185Z,2540.00
2019-02-08T09:44:44.179Z,2540.00
2019-02-08T09:45:44.051Z,2612.00
2019-02-08T09:46:43.936Z,2572.00
2019-02-08T09:47:43.908Z,2676.00
2019-02-08T09:48:43.774Z,2652.00
2019-02-08T09:49:43.704Z,2700.00
2019-02-08T09:50:43.623Z,2648.00
2019-02-08T09:51:47.317Z,2620.00
2019-02-08T09:52:43.512Z,2624.00
2019-02-08T09:53:43.398Z,2640.00
2019-02-08T09:54:43.346Z,2600.00
2019-02-08T09:55:43.260Z,2612.00
2019-02-08T09:56:43.176Z,2672.00
2019-02-08T09:57:43.055Z,2640.00
2019-02-08T09:58:42.981Z,2656.00
2019-02-08T09:59:42.945Z,2656.00
2019-02-08T10:00:42.820Z,2664.00
2019-02-08T10:01:42.745Z,2636.00
2019-02-08T10:02:42.671Z,2736.00
2019-02-08T10:03:42.616Z,2820.00
2019-02-08T10:04:42.527Z,2644.00
2019-02-08T10:05:42.446Z,2744.00
2019-02-08T10:06:42.428Z,2644.00
2019-02-08T10:07:42.306Z,2720.00
2019-02-08T10:08:42.183Z,2632.00
2019-02-08T10:09:42.108Z,2580.00
2019-02-08T10:10:42.036Z,2700.00
2019-02-08T10:11:41.956Z,2756.00
2019-02-08T10:12:41.904Z,2688.00
2019-02-08T10:13:41.790Z,2656.00
2019-02-08T10:14:41.715Z,2792.00
2019-02-08T10:15:41.718Z,2772.00
2019-02-08T10:16:41.565Z,2756.00
2019-02-08T10:17:41.482Z,2812.00
2019-02-08T10:18:41.410Z,2772.00
2019-02-08T10:19:41.326Z,2824.00
2019-02-08T10:20:41.280Z,2904.00
2019-02-08T10:21:41.187Z,2880.00
2019-02-08T10:22:41.080Z,2828.00
2019-02-08T10:23:40.997Z,2816.00
2019-02-08T10:24:40.960Z,2812.00
2019-02-08T10:25:40.854Z,2848.00
2019-02-08T10:26:40.823Z,2812.00
2019-02-08T10:27:40.682Z,2860.00
2019-02-08T10:28:40.608Z,2876.00
2019-02-08T10:29:40.521Z,2788.00
2019-02-08T10:30:40.452Z,2808.00
2019-02-08T10:31:40.367Z,2812.00
2019-02-08T10:32:40.299Z,2804.00
2019-02-08T10:33:40.229Z,2856.00
2019-02-08T10:34:40.163Z,2824.00
2019-02-08T10:35:40.050Z,2824.00
2019-02-08T10:36:39.978Z,2784.00
2019-02-08T10:37:39.956Z,2840.00
2019-02-08T10:38:39.818Z,2840.00
2019-02-08T10:39:39.789Z,2756.00
2019-02-08T10:40:39.673Z,2816.00
2019-02-08T10:41:39.588Z,2832.00
2019-02-08T10:42:39.509Z,2900.00
2019-02-08T10:43:39.472Z,2784.00
2019-02-08T10:44:39.343Z,2796.00
2019-02-08T10:45:39.322Z,2748.00
2019-02-08T10:46:39.186Z,2712.00
2019-02-08T10:47:39.142Z,2584.00
2019-02-08T10:48:39.047Z,2668.00
2019-02-08T10:49:38.971Z,2568.00
2019-02-08T10:50:38.916Z,2548.00
2019-02-08T10:51:38.797Z,2588.00
2019-02-08T10:52:38.768Z,2648.00
2019-02-08T10:53:38.695Z,2572.00
2019-02-08T10:54:38.562Z,2700.00
2019-02-08T10:55:38.501Z,2760.00
2019-02-08T10:56:38.415Z,2752.00
2019-02-08T10:57:38.335Z,2720.00
2019-02-08T10:58:38.286Z,2720.00
2019-02-08T10:59:38.180Z,2812.00
2019-02-08T11:00:38.100Z,2816.00
2019-02-08T11:01:42.003Z,2796.00
2019-02-08T11:02:38.004Z,2816.00
2019-02-08T11:03:37.865Z,2764.00
2019-02-08T11:04:37.777Z,2724.00
2019-02-08T11:05:37.741Z,2776.00
2019-02-08T11:06:37.663Z,2712.00
2019-02-08T11:07:37.537Z,2612.00
2019-02-08T11:08:37.516Z,2576.00
2019-02-08T11:09:37.390Z,2628.00
2019-02-08T11:10:37.306Z,2728.00
2019-02-08T11:11:37.226Z,2716.00
2019-02-08T11:12:37.198Z,2712.00
2019-02-08T11:13:37.068Z,2672.00
2019-02-08T11:14:37.048Z,2832.00
2019-02-08T11:15:36.932Z,2676.00
2019-02-08T11:16:36.843Z,2740.00
2019-02-08T11:17:36.767Z,2780.00
2019-02-08T11:18:36.682Z,2532.00
2019-02-08T11:19:36.604Z,2716.00
2019-02-08T11:20:36.566Z,2724.00
2019-02-08T11:21:36.448Z,2644.00
2019-02-08T11:22:36.366Z,2628.00
2019-02-08T11:23:36.293Z,2588.00
2019-02-08T11:24:36.288Z,2628.00
2019-02-08T11:25:36.159Z,2744.00
2019-02-08T11:26:36.100Z,2756.00
2019-02-08T11:27:35.986Z,2664.00
2019-02-08T11:28:35.962Z,2692.00
2019-02-08T11:29:35.826Z,2740.00
2019-02-08T11:30:35.765Z,2776.00
2019-02-08T11:31:35.660Z,2712.00
2019-02-08T11:32:43.421Z,2688.00
2019-02-08T11:33:35.552Z,2664.00
2019-02-08T11:34:35.420Z,2680.00
2019-02-08T11:35:35.378Z,2652.00
2019-02-08T11:36:35.270Z,2664.00
2019-02-08T11:37:35.191Z,2584.00
2019-02-08T11:38:35.117Z,2448.00
2019-02-08T11:39:35.032Z,2472.00
2019-02-08T11:40:35.010Z,2504.00
2019-02-08T11:41:34.925Z,2404.00
2019-02-08T11:42:34.804Z,2456.00
2019-02-08T11:43:34.776Z,2532.00
2019-02-08T11:44:34.647Z,2484.00
2019-02-08T11:45:34.566Z,2500.00
2019-02-08T11:46:34.489Z,2568.00
2019-02-08T11:47:34.416Z,2560.00
2019-02-08T11:48:34.333Z,2540.00
2019-02-08T11:49:34.261Z,2504.00
2019-02-08T11:50:34.191Z,2584.00
2019-02-08T11:51:34.103Z,2568.00
2019-02-08T11:52:34.074Z,2356.00
2019-02-08T11:53:33.945Z,2472.00
2019-02-08T11:54:33.861Z,2544.00
2019-02-08T11:55:33.798Z,2464.00
2019-02-08T11:56:33.708Z,2452.00
2019-02-08T11:57:34.353Z,2464.00
2019-02-08T11:58:33.549Z,2512.00
2019-02-08T11:59:33.480Z,2480.00
2019-02-08T12:00:33.403Z,2436.00
2019-02-08T12:01:33.315Z,2416.00
2019-02-08T12:02:40.259Z,2432.00
2019-02-08T12:03:33.163Z,2400.00
2019-02-08T12:04:33.094Z,2412.00
2019-02-08T12:05:33.042Z,2376.00
2019-02-08T12:06:33.888Z,2372.00
2019-02-08T12:07:32.885Z,2364.00
2019-02-08T12:08:32.772Z,2356.00
2019-02-08T12:09:32.695Z,2376.00
2019-02-08T12:10:32.612Z,2376.00
2019-02-08T12:11:32.540Z,2356.00
2019-02-08T12:12:32.455Z,2364.00
2019-02-08T12:13:32.385Z,2332.00
2019-02-08T12:14:32.337Z,2256.00
2019-02-08T12:15:32.221Z,2268.00
2019-02-08T12:16:32.147Z,2296.00
2019-02-08T12:17:32.098Z,2304.00
2019-02-08T12:18:31.997Z,2272.00
2019-02-08T12:19:31.919Z,2256.00
2019-02-08T12:20:31.839Z,2220.00
2019-02-08T12:21:31.764Z,2224.00
2019-02-08T12:22:31.712Z,2232.00
2019-02-08T12:23:31.597Z,2204.00
2019-02-08T12:24:31.575Z,2236.00
2019-02-08T12:25:33.380Z,2132.00
2019-02-08T12:26:37.726Z,2084.00
2019-02-08T12:27:31.324Z,2164.00
2019-02-08T12:28:31.933Z,2136.00
2019-02-08T12:29:31.138Z,2060.00
2019-02-08T12:30:31.086Z,2072.00
2019-02-08T12:31:30.973Z,2072.00
2019-02-08T12:32:30.904Z,2072.00
2019-02-08T12:33:30.818Z,2076.00
2019-02-08T12:34:30.765Z,2120.00
2019-02-08T12:35:30.715Z,2128.00
2019-02-08T12:36:30.581Z,2148.00
2019-02-08T12:37:30.516Z,2084.00
2019-02-08T12:38:30.485Z,2112.00
2019-02-08T12:39:30.355Z,2156.00
2019-02-08T12:40:30.271Z,2128.00
2019-02-08T12:41:30.204Z,2120.00
2019-02-08T12:42:30.115Z,1900.00
2019-02-08T12:43:30.055Z,2080.00
2019-02-08T12:44:29.963Z,1916.00
2019-02-08T12:45:29.903Z,1912.00